createdAt,value
2023-01-31T00:02:58.181Z,2.16
2023-01-31T00:07:55.390Z,2.36
2023-01-31T00:12:51.959Z,2.24
2023-01-31T00:17:48.633Z,2.12
2023-01-31T00:22:45.215Z,1.90
2023-01-31T00:27:42.517Z,1.93
2023-01-31T00:32:41.635Z,1.96
2023-01-31T00:37:38.286Z,2.02
2023-01-31T00:42:34.891Z,2.05
2023-01-31T00:47:35.284Z,2.22
2023-01-31T00:52:32.430Z,2.00
2023-01-31T00:57:32.205Z,1.86
2023-01-31T01:02:28.976Z,1.68
2023-01-31T01:07:26.499Z,1.84
2023-01-31T01:12:23.114Z,2.01
2023-01-31T01:17:19.808Z,1.91
2023-01-31T01:22:18.829Z,1.98
2023-01-31T01:27:16.055Z,1.91
2023-01-31T01:32:14.819Z,1.94
2023-01-31T01:37:19.599Z,1.87
2023-01-31T01:42:16.952Z,1.55
2023-01-31T01:47:17.408Z,1.51
2023-01-31T01:52:15.435Z,1.51
2023-01-31T01:57:14.096Z,1.59
2023-01-31T02:02:13.477Z,1.67
2023-01-31T02:07:10.518Z,1.89
2023-01-31T02:12:07.443Z,2.05
2023-01-31T02:17:04.056Z,2.31
2023-01-31T02:22:09.450Z,2.32
2023-01-31T02:27:25.468Z,2.47
2023-01-31T02:32:36.764Z,2.28
2023-01-31T02:37:37.929Z,2.00
2023-01-31T02:42:38.230Z,1.86
2023-01-31T02:47:49.398Z,1.76
2023-01-31T02:52:51.076Z,1.92
2023-01-31T02:57:49.709Z,1.77
2023-01-31T03:02:47.296Z,1.77
2023-01-31T03:07:47.328Z,1.85
2023-01-31T03:12:51.671Z,1.88
2023-01-31T03:17:53.790Z,1.84
2023-01-31T03:22:52.441Z,1.91
2023-01-31T03:27:52.241Z,1.95
2023-01-31T03:32:54.294Z,1.96
2023-01-31T03:37:56.572Z,1.88
2023-01-31T03:42:57.491Z,2.05
2023-01-31T03:47:56.431Z,2.11
2023-01-31T03:52:56.814Z,2.33
2023-01-31T03:57:56.111Z,2.30
2023-01-31T04:02:57.000Z,2.23
2023-01-31T04:07:54.456Z,2.16
2023-01-31T04:12:55.213Z,1.97
2023-01-31T04:17:51.816Z,2.25
2023-01-31T04:22:48.486Z,1.94
2023-01-31T04:27:45.688Z,2.08
2023-01-31T04:32:42.480Z,2.09
2023-01-31T04:37:39.215Z,2.11
2023-01-31T04:42:36.435Z,2.24
2023-01-31T04:47:34.017Z,2.36
2023-01-31T04:52:32.034Z,2.48
2023-01-31T04:57:28.891Z,2.52
2023-01-31T05:02:25.692Z,2.49
2023-01-31T05:07:23.184Z,2.80
2023-01-31T05:12:20.060Z,3.09
2023-01-31T05:17:16.670Z,3.32
2023-01-31T05:22:13.366Z,3.30
2023-01-31T05:27:10.713Z,3.36
2023-01-31T05:32:07.899Z,3.47
2023-01-31T05:37:04.627Z,3.48
2023-01-31T05:42:01.931Z,3.27
2023-01-31T05:47:00.259Z,2.95
2023-01-31T05:51:57.070Z,2.63
2023-01-31T05:56:56.690Z,2.51
2023-01-31T06:01:53.870Z,2.45
2023-01-31T06:06:51.129Z,2.52
2023-01-31T06:11:47.845Z,2.55
2023-01-31T06:16:44.601Z,2.43
2023-01-31T06:21:41.399Z,2.47
2023-01-31T06:26:41.170Z,2.48
2023-01-31T06:31:40.188Z,2.29
2023-01-31T06:36:37.070Z,2.39
2023-01-31T06:41:33.924Z,2.21
2023-01-31T06:46:33.551Z,2.32
2023-01-31T06:51:30.442Z,2.37
2023-01-31T06:56:27.112Z,2.48
2023-01-31T07:01:24.161Z,2.56
2023-01-31T07:06:22.341Z,2.32
2023-01-31T07:11:22.381Z,2.47
2023-01-31T07:16:22.434Z,2.36
2023-01-31T07:21:19.262Z,2.35
2023-01-31T07:26:22.474Z,2.32
2023-01-31T07:31:21.747Z,2.29
2023-01-31T07:36:26.291Z,2.36
2023-01-31T07:47:14.423Z,2.45
2023-01-31T07:52:42.527Z,2.67
2023-01-31T07:59:49.447Z,2.75
2023-01-31T08:15:53.134Z,2.68
2023-01-31T08:21:13.238Z,2.62
2023-01-31T08:56:42.933Z,2.67
2023-01-31T09:07:51.530Z,2.52
2023-01-31T09:13:03.183Z,2.52
2023-01-31T09:24:43.259Z,2.48
2023-01-31T09:30:08.871Z,2.70
2023-01-31T09:35:33.161Z,2.74
2023-01-31T09:40:51.172Z,2.64
2023-01-31T09:45:57.753Z,2.70
2023-01-31T09:50:55.951Z,2.71
2023-01-31T09:55:56.914Z,2.57
2023-01-31T10:00:57.470Z,2.82
2023-01-31T10:05:58.666Z,2.85
2023-01-31T10:10:56.902Z,2.71
2023-01-31T10:15:56.467Z,2.85
2023-01-31T10:20:54.861Z,2.72
2023-01-31T10:25:54.541Z,2.86
2023-01-31T10:30:56.234Z,3.00
2023-01-31T10:35:55.333Z,3.08
2023-01-31T10:41:06.611Z,3.27
2023-01-31T10:46:08.593Z,3.58
2023-01-31T10:51:10.831Z,3.30
2023-01-31T10:56:11.189Z,3.33
2023-01-31T11:01:11.481Z,3.29
2023-01-31T11:06:15.456Z,3.71
2023-01-31T11:11:17.102Z,3.83
2023-01-31T11:16:15.266Z,3.62
2023-01-31T11:21:19.273Z,3.90
2023-01-31T11:26:25.772Z,3.79
2023-01-31T11:31:28.114Z,3.88
2023-01-31T11:36:26.369Z,3.71
2023-01-31T11:41:31.102Z,3.79
2023-01-31T11:46:28.006Z,3.78
2023-01-31T11:51:26.574Z,3.67
2023-01-31T11:56:25.714Z,3.96
2023-01-31T12:01:33.308Z,3.92
2023-01-31T12:06:32.661Z,4.12
2023-01-31T12:11:30.582Z,4.04
2023-01-31T12:16:29.574Z,4.19
2023-01-31T12:21:40.278Z,4.33
2023-01-31T12:26:42.204Z,4.37
2023-01-31T12:31:59.704Z,4.52
2023-01-31T12:37:03.459Z,4.58
2023-01-31T12:42:11.937Z,4.69
2023-01-31T12:47:16.917Z,4.76
2023-01-31T12:52:18.587Z,4.79
2023-01-31T12:57:24.701Z,4.83
2023-01-31T13:02:33.075Z,4.91
2023-01-31T13:07:47.416Z,4.85
2023-01-31T13:12:46.936Z,4.52
2023-01-31T13:17:46.157Z,4.53
2023-01-31T13:22:45.616Z,4.47
2023-01-31T13:27:44.719Z,4.65
2023-01-31T13:32:44.202Z,4.52
2023-01-31T13:43:36.827Z,4.64
2023-01-31T13:48:40.001Z,4.50
2023-01-31T13:53:45.797Z,4.43
2023-01-31T13:58:56.963Z,4.29
2023-01-31T14:04:30.806Z,4.51
2023-01-31T14:09:30.366Z,4.22
2023-01-31T14:14:42.988Z,4.40
2023-01-31T14:20:01.173Z,4.51
2023-01-31T14:24:59.856Z,4.63
2023-01-31T14:30:01.124Z,4.56
2023-01-31T14:34:58.296Z,4.67
2023-01-31T14:40:13.656Z,4.69
2023-01-31T14:45:20.728Z,4.57
2023-01-31T14:50:40.836Z,4.58
2023-01-31T14:55:45.021Z,4.49
2023-01-31T15:00:51.017Z,4.50
2023-01-31T15:05:50.342Z,4.36
2023-01-31T15:10:54.081Z,4.52
2023-01-31T15:15:55.995Z,4.53
2023-01-31T15:20:55.050Z,4.49
2023-01-31T15:25:52.353Z,4.33
2023-01-31T15:30:49.812Z,4.21
2023-01-31T15:35:49.804Z,4.27
2023-01-31T15:40:46.501Z,4.06
2023-01-31T15:45:43.319Z,3.92
2023-01-31T15:50:49.572Z,3.84
2023-01-31T15:55:48.040Z,3.87
2023-01-31T16:00:44.987Z,3.97
2023-01-31T16:05:42.942Z,4.04
2023-01-31T16:10:43.843Z,4.12
2023-01-31T16:15:43.904Z,4.23
2023-01-31T16:20:44.148Z,4.27
2023-01-31T16:25:40.935Z,3.98
2023-01-31T16:30:40.866Z,3.86
2023-01-31T16:35:40.563Z,3.82
2023-01-31T16:40:44.039Z,3.99
2023-01-31T16:45:52.831Z,3.90
2023-01-31T16:50:49.506Z,3.90
2023-01-31T16:55:46.305Z,3.88
2023-01-31T17:00:46.708Z,3.83
2023-01-31T17:05:47.439Z,3.95
2023-01-31T17:10:51.156Z,3.87
2023-01-31T17:15:50.397Z,3.87
2023-01-31T17:20:48.620Z,4.05
2023-01-31T17:25:45.462Z,3.67
2023-01-31T17:30:44.209Z,3.82
2023-01-31T17:35:45.640Z,3.86
2023-01-31T17:40:42.595Z,3.91
2023-01-31T17:45:39.842Z,3.91
2023-01-31T17:50:36.439Z,4.06
2023-01-31T17:55:33.689Z,3.95
2023-01-31T18:00:30.249Z,3.99
2023-01-31T18:05:38.295Z,3.41
2023-01-31T18:10:36.319Z,3.42
2023-01-31T18:15:33.275Z,3.26
2023-01-31T18:20:30.046Z,3.38
2023-01-31T18:25:26.779Z,3.45
2023-01-31T18:30:29.095Z,3.27
2023-01-31T18:35:25.775Z,3.18
2023-01-31T18:40:22.551Z,3.39
2023-01-31T18:45:22.675Z,3.49
2023-01-31T18:50:20.538Z,3.40
2023-01-31T18:55:17.314Z,3.69
2023-01-31T19:00:14.605Z,3.60
2023-01-31T19:05:11.124Z,3.59
2023-01-31T19:10:14.056Z,3.64
2023-01-31T19:15:12.474Z,3.65
2023-01-31T19:20:10.037Z,3.67
2023-01-31T19:25:10.674Z,3.78
2023-01-31T19:30:09.049Z,3.85
2023-01-31T19:35:06.424Z,3.93
2023-01-31T19:40:04.382Z,3.49
2023-01-31T19:45:01.098Z,3.46
2023-01-31T19:49:58.820Z,3.51
2023-01-31T19:54:55.479Z,3.52
2023-01-31T19:59:53.585Z,3.75
2023-01-31T20:04:52.620Z,3.50
2023-01-31T20:09:49.948Z,3.58
2023-01-31T20:14:46.607Z,3.88
2023-01-31T20:19:45.310Z,3.94
2023-01-31T20:24:42.021Z,3.97
2023-01-31T20:29:39.376Z,3.99
2023-01-31T20:34:35.936Z,3.70
2023-01-31T20:39:32.690Z,3.76
2023-01-31T20:44:29.337Z,3.71
2023-01-31T20:49:26.936Z,3.77
2023-01-31T20:54:23.861Z,3.78
2023-01-31T20:59:20.702Z,3.86
2023-01-31T21:04:19.009Z,3.77
2023-01-31T21:09:18.134Z,3.72
2023-01-31T21:14:15.583Z,4.00
2023-01-31T21:19:13.454Z,3.91
2023-01-31T21:24:11.731Z,3.73
2023-01-31T21:29:08.991Z,3.80
2023-01-31T21:34:06.024Z,3.68
2023-01-31T21:39:02.788Z,3.57
2023-01-31T21:43:59.677Z,3.65
2023-01-31T21:48:57.291Z,3.47
2023-01-31T21:53:54.449Z,3.48
2023-01-31T21:58:52.609Z,3.31
2023-01-31T22:03:50.263Z,3.42
2023-01-31T22:08:51.436Z,3.43
2023-01-31T22:13:51.636Z,3.38
2023-01-31T22:18:49.356Z,3.49
2023-01-31T22:23:46.756Z,3.28
2023-01-31T22:28:44.409Z,3.31
2023-01-31T22:33:43.920Z,3.53
2023-01-31T22:38:40.621Z,3.36
2023-01-31T22:43:38.396Z,3.46
2023-01-31T22:48:35.749Z,3.34
2023-01-31T22:53:33.203Z,3.29
2023-01-31T22:58:29.766Z,3.34
2023-01-31T23:03:26.658Z,3.20
2023-01-31T23:08:29.360Z,3.31
2023-01-31T23:13:25.956Z,3.17
2023-01-31T23:18:22.511Z,3.16
2023-01-31T23:23:19.150Z,3.08
2023-01-31T23:28:16.436Z,3.13
2023-01-31T23:33:13.756Z,2.86
2023-01-31T23:38:10.345Z,2.77
2023-01-31T23:43:06.951Z,3.01
2023-01-31T23:48:04.589Z,2.94
2023-01-31T23:53:01.301Z,2.90
2023-01-31T23:57:57.909Z,2.93
